Time;durP1;ratioP1;P1;durP2;ratioP2;P2;SDS_P1;SDS_P2;PMS_P1;PMS_P2;Temp;Humidity;BMP_temperature;BMP_pressure;BME280_temperature;BME280_humidity;BME280_pressure;Samples;Min_cycle;Max_cycle;Signal;HPM_P1;HPM_P2
2022/03/30 00:00:26;;;;;;;12.37;5.80;;;13.30;51.20;;;;;;5000327;28;20037;-84
2022/03/30 00:02:51;;;;;;;10.75;5.88;;;13.20;51.20;;;;;;4982985;28;20108;-84
2022/03/30 00:05:17;;;;;;;10.63;5.27;;;13.10;51.30;;;;;;5001515;28;20441;-83
2022/03/30 00:07:43;;;;;;;11.13;5.38;;;13.10;51.40;;;;;;4980082;28;20113;-84
2022/03/30 00:10:09;;;;;;;10.00;5.47;;;13.00;51.50;;;;;;5017275;28;20069;-84
2022/03/30 00:12:34;;;;;;;11.60;5.50;;;12.90;51.50;;;;;;5013513;28;21066;-84
2022/03/30 00:15:01;;;;;;;8.47;5.00;;;12.80;51.50;;;;;;4978428;28;20131;-84
2022/03/30 00:17:27;;;;;;;9.77;5.60;;;12.80;51.70;;;;;;4994804;28;20029;-84
2022/03/30 00:19:52;;;;;;;11.60;5.53;;;12.70;51.80;;;;;;5002370;28;20534;-83
2022/03/30 00:22:18;;;;;;;11.40;5.53;;;12.70;51.80;;;;;;5000385;28;20049;-84
2022/03/30 00:24:44;;;;;;;9.77;5.20;;;12.60;51.90;;;;;;4992434;28;20026;-84
2022/03/30 00:27:13;;;;;;;9.80;4.97;;;12.60;52.00;;;;;;4981649;28;20068;-84
2022/03/30 00:29:39;;;;;;;9.97;4.77;;;12.50;52.30;;;;;;4996130;28;20038;-84
2022/03/30 00:32:05;;;;;;;10.68;5.13;;;12.50;52.10;;;;;;5015904;28;20045;-84
2022/03/30 00:34:31;;;;;;;10.90;5.63;;;12.50;52.20;;;;;;4998486;28;20517;-83
2022/03/30 00:36:57;;;;;;;8.87;5.10;;;12.40;52.20;;;;;;5002323;28;20076;-84
2022/03/30 00:39:23;;;;;;;11.68;5.55;;;12.40;52.30;;;;;;4985231;28;20033;-84
2022/03/30 00:41:48;;;;;;;10.90;5.63;;;12.30;52.20;;;;;;4996408;28;20148;-84
2022/03/30 00:44:15;;;;;;;10.98;5.35;;;12.30;52.30;;;;;;4999268;28;20037;-83
2022/03/30 00:46:44;;;;;;;11.15;5.93;;;12.20;52.40;;;;;;5012490;28;20517;-84
2022/03/30 00:49:11;;;;;;;11.38;5.43;;;12.10;52.40;;;;;;4986814;28;20061;-83
2022/03/30 00:51:37;;;;;;;10.07;5.10;;;12.10;52.40;;;;;;4996860;28;20428;-84
2022/03/30 00:54:03;;;;;;;10.63;5.25;;;12.10;52.50;;;;;;5007707;28;20095;-83
2022/03/30 00:56:33;;;;;;;10.80;5.68;;;12.00;52.60;;;;;;5017286;28;20025;-84
2022/03/30 00:59:01;;;;;;;9.55;5.20;;;11.90;52.80;;;;;;4998634;28;20680;-84
2022/03/30 01:01:28;;;;;;;11.20;5.40;;;11.90;52.80;;;;;;4998155;28;20026;-84
2022/03/30 01:03:54;;;;;;;10.80;5.13;;;11.80;52.80;;;;;;4978340;28;20568;-83
2022/03/30 01:06:19;;;;;;;10.93;5.82;;;11.80;52.90;;;;;;4982204;28;20025;-83
2022/03/30 01:08:46;;;;;;;9.73;5.17;;;11.70;53.00;;;;;;4979445;28;20026;-84
2022/03/30 01:11:12;;;;;;;11.73;5.75;;;11.70;53.10;;;;;;4998295;28;20084;-84
2022/03/30 01:13:39;;;;;;;10.50;4.88;;;11.70;53.20;;;;;;4979947;28;20494;-83
2022/03/30 01:16:05;;;;;;;10.90;5.30;;;11.60;53.30;;;;;;5013800;28;20052;-84
2022/03/30 01:18:38;;;;;;;10.90;5.50;;;11.60;53.30;;;;;;4999523;28;20601;-83
2022/03/30 01:21:04;;;;;;;9.80;5.13;;;11.60;53.90;;;;;;4982067;28;20038;-84
2022/03/30 01:23:30;;;;;;;11.82;5.72;;;11.60;53.50;;;;;;4981516;28;20026;-84
2022/03/30 01:25:56;;;;;;;10.45;5.43;;;11.60;53.70;;;;;;4979657;28;20253;-84
2022/03/30 01:28:28;;;;;;;12.77;5.53;;;11.50;53.70;;;;;;4982013;28;20061;-84
2022/03/30 01:33:42;;;;;;;8.25;5.18;;;11.40;53.90;;;;;;5011657;28;20041;-84
2022/03/30 01:36:08;;;;;;;10.30;5.40;;;11.40;53.70;;;;;;4988046;28;20030;-84
2022/03/30 01:38:34;;;;;;;11.23;5.03;;;11.40;53.90;;;;;;4982160;28;20375;-84
2022/03/30 01:40:59;;;;;;;9.67;5.40;;;11.40;53.90;;;;;;4997464;28;20311;-84
2022/03/30 01:43:28;;;;;;;10.40;5.05;;;11.40;54.00;;;;;;4998561;28;20026;-84
2022/03/30 01:45:54;;;;;;;10.45;5.20;;;11.40;54.00;;;;;;4997065;28;20132;-84
2022/03/30 01:48:20;;;;;;;8.13;4.83;;;11.40;54.00;;;;;;5000179;28;20026;-84
2022/03/30 01:50:45;;;;;;;10.60;4.85;;;11.40;54.00;;;;;;4964382;28;20413;-84
2022/03/30 01:53:11;;;;;;;9.20;4.87;;;11.30;54.00;;;;;;4998086;28;20120;-84
2022/03/30 01:55:37;;;;;;;9.40;5.20;;;11.30;54.10;;;;;;5000279;28;20072;-84
2022/03/30 01:58:03;;;;;;;8.93;4.85;;;11.30;54.10;;;;;;5000631;28;20025;-84
2022/03/30 02:00:29;;;;;;;10.13;4.60;;;11.30;54.10;;;;;;4981846;28;20034;-84
2022/03/30 02:02:55;;;;;;;8.07;4.57;;;11.30;54.10;;;;;;4999017;28;20214;-84
2022/03/30 02:05:21;;;;;;;9.67;4.90;;;11.20;54.10;;;;;;4997472;28;20030;-84
2022/03/30 02:07:47;;;;;;;9.70;5.03;;;11.20;54.10;;;;;;4980392;28;20918;-84
2022/03/30 02:10:13;;;;;;;9.07;4.47;;;11.20;54.30;;;;;;4997885;28;20358;-84
2022/03/30 02:12:39;;;;;;;9.32;4.70;;;11.20;54.30;;;;;;4994877;28;20542;-84
2022/03/30 02:15:05;;;;;;;9.10;4.38;;;11.10;54.40;;;;;;4987453;28;20034;-84
2022/03/30 02:17:32;;;;;;;8.83;4.60;;;11.10;54.50;;;;;;5011617;28;20452;-84
2022/03/30 02:19:58;;;;;;;8.15;4.28;;;11.10;54.50;;;;;;4980900;28;20030;-84
2022/03/30 02:22:23;;;;;;;8.77;4.47;;;11.10;54.60;;;;;;4979473;28;20771;-84
2022/03/30 02:24:52;;;;;;;8.23;4.17;;;11.10;54.60;;;;;;4998655;28;20022;-84
2022/03/30 02:27:21;;;;;;;12.63;4.63;;;11.10;54.90;;;;;;4995534;28;20520;-84
2022/03/30 02:29:52;;;;;;;10.05;4.38;;;11.00;54.70;;;;;;5014209;28;20121;-84
2022/03/30 02:32:18;;;;;;;8.90;4.50;;;11.00;55.10;;;;;;4993812;28;20296;-84
2022/03/30 02:34:44;;;;;;;9.20;4.47;;;11.00;54.90;;;;;;4996206;28;20038;-84
2022/03/30 02:37:11;;;;;;;7.95;4.47;;;11.00;54.90;;;;;;5009523;28;20030;-84
2022/03/30 02:39:37;;;;;;;9.88;4.57;;;11.00;54.90;;;;;;4983868;28;20053;-84
2022/03/30 02:42:07;;;;;;;9.13;4.70;;;11.00;54.90;;;;;;4997702;28;20117;-84
2022/03/30 02:44:33;;;;;;;10.30;4.47;;;11.00;54.90;;;;;;4998203;28;20333;-84
2022/03/30 02:47:00;;;;;;;9.50;4.60;;;10.90;54.90;;;;;;4979291;28;20041;-84
2022/03/30 02:49:27;;;;;;;8.63;4.40;;;10.90;54.90;;;;;;4995413;28;20203;-84
2022/03/30 02:51:53;;;;;;;8.70;4.50;;;10.90;55.00;;;;;;4997604;28;20025;-84
2022/03/30 02:54:19;;;;;;;8.30;4.50;;;10.90;55.20;;;;;;4981721;28;20542;-84
2022/03/30 02:56:45;;;;;;;9.23;5.00;;;10.90;55.30;;;;;;4997639;28;20093;-84
2022/03/30 02:59:11;;;;;;;7.82;4.50;;;10.90;55.30;;;;;;4994550;28;20025;-84
2022/03/30 03:01:37;;;;;;;8.43;4.47;;;10.80;55.30;;;;;;4997691;28;20026;-84
2022/03/30 03:04:03;;;;;;;7.63;4.00;;;10.80;55.30;;;;;;5012774;28;20133;-84
2022/03/30 03:06:29;;;;;;;9.70;4.80;;;10.80;55.40;;;;;;4991009;28;20499;-84
2022/03/30 03:08:55;;;;;;;8.13;4.50;;;10.70;55.40;;;;;;5014559;28;20030;-84
2022/03/30 03:11:20;;;;;;;10.52;4.32;;;10.70;55.30;;;;;;4985835;28;20029;-84
2022/03/30 03:13:46;;;;;;;7.20;4.17;;;10.70;55.30;;;;;;5001833;28;20355;-84
2022/03/30 03:16:15;;;;;;;9.15;4.40;;;10.70;55.50;;;;;;4987409;28;20022;-84
2022/03/30 03:18:41;;;;;;;8.98;4.43;;;10.70;55.80;;;;;;4993218;28;20077;-84
2022/03/30 03:21:06;;;;;;;7.30;4.17;;;10.60;55.50;;;;;;4982068;28;21166;-84
2022/03/30 03:23:32;;;;;;;8.48;4.38;;;10.60;55.70;;;;;;5000430;28;20029;-84
2022/03/30 03:25:58;;;;;;;7.83;4.23;;;10.60;55.80;;;;;;4985571;28;20498;-84
2022/03/30 03:28:23;;;;;;;9.13;4.30;;;10.60;55.90;;;;;;4982524;28;20034;-84
2022/03/30 03:30:49;;;;;;;9.97;4.27;;;10.60;55.90;;;;;;5017533;28;20423;-84
2022/03/30 03:33:15;;;;;;;7.22;4.13;;;10.60;55.90;;;;;;4998081;28;20237;-84
2022/03/30 03:35:41;;;;;;;9.80;4.23;;;10.60;56.00;;;;;;5000171;28;20104;-84
2022/03/30 03:38:10;;;;;;;9.93;4.20;;;10.60;56.20;;;;;;4998695;28;20040;-84
2022/03/30 03:40:36;;;;;;;8.00;4.32;;;10.60;56.30;;;;;;4985511;28;20486;-84
2022/03/30 03:43:04;;;;;;;9.13;4.38;;;10.50;56.30;;;;;;5001406;28;20038;-84
2022/03/30 03:45:30;;;;;;;8.65;4.20;;;10.50;56.50;;;;;;5000455;28;20194;-84
2022/03/30 03:47:56;;;;;;;7.60;4.03;;;10.50;56.40;;;;;;5001573;28;20416;-83
2022/03/30 03:50:22;;;;;;;8.45;3.97;;;10.50;56.50;;;;;;4979725;28;20110;-84
2022/03/30 03:52:48;;;;;;;8.32;4.03;;;10.50;56.50;;;;;;5017534;28;20199;-84
2022/03/30 03:55:14;;;;;;;7.55;4.10;;;10.50;56.50;;;;;;4981185;28;20034;-84
2022/03/30 03:57:40;;;;;;;7.27;3.93;;;10.50;56.70;;;;;;4969184;28;20034;-84
2022/03/30 04:00:09;;;;;;;9.00;4.30;;;10.60;56.80;;;;;;4999692;28;20292;-84
2022/03/30 04:02:35;;;;;;;7.90;4.10;;;10.60;56.90;;;;;;4998939;28;20033;-84
2022/03/30 04:05:01;;;;;;;9.37;4.13;;;10.60;56.80;;;;;;5001069;28;20029;-83
2022/03/30 04:07:26;;;;;;;9.55;4.55;;;10.60;56.80;;;;;;4997537;28;20096;-84
2022/03/30 04:09:52;;;;;;;8.60;3.88;;;10.60;57.60;;;;;;5000191;28;20510;-84
2022/03/30 04:12:18;;;;;;;7.27;3.83;;;10.60;56.90;;;;;;4983807;28;20168;-84
2022/03/30 04:14:43;;;;;;;7.72;4.00;;;10.60;56.90;;;;;;4983892;28;20228;-84
2022/03/30 04:17:11;;;;;;;7.63;4.07;;;10.60;57.00;;;;;;4995759;28;20040;-84
2022/03/30 04:19:37;;;;;;;8.50;4.05;;;10.60;57.10;;;;;;4999050;28;20026;-83
2022/03/30 04:22:03;;;;;;;8.07;4.50;;;10.60;57.00;;;;;;4995370;28;20029;-83
2022/03/30 04:24:28;;;;;;;7.03;3.73;;;10.60;57.00;;;;;;4981051;28;20030;-83
2022/03/30 04:26:54;;;;;;;9.18;4.40;;;10.60;56.90;;;;;;4999745;28;20050;-84
2022/03/30 04:29:20;;;;;;;8.63;3.80;;;10.50;57.00;;;;;;4982597;28;20301;-83
2022/03/30 04:31:45;;;;;;;7.03;3.72;;;10.60;57.10;;;;;;4983428;28;20065;-84
2022/03/30 04:34:11;;;;;;;8.03;4.13;;;10.50;56.90;;;;;;4980880;28;20397;-83
2022/03/30 04:36:37;;;;;;;8.30;4.30;;;10.50;57.00;;;;;;5001360;28;20475;-84
2022/03/30 04:39:03;;;;;;;9.70;4.53;;;10.50;57.10;;;;;;4982465;28;20624;-83
2022/03/30 04:41:28;;;;;;;9.30;5.10;;;10.40;57.20;;;;;;4999397;28;20092;-83
2022/03/30 04:43:54;;;;;;;7.83;3.93;;;10.40;57.20;;;;;;4968430;28;20037;-83
2022/03/30 04:46:19;;;;;;;9.88;4.20;;;10.40;57.20;;;;;;4980262;28;20117;-83
2022/03/30 04:48:45;;;;;;;9.20;4.20;;;10.30;57.00;;;;;;5002789;28;20491;-84
2022/03/30 04:51:11;;;;;;;8.25;4.20;;;10.30;57.20;;;;;;4997118;28;20112;-83
2022/03/30 04:53:36;;;;;;;8.13;3.83;;;10.20;57.30;;;;;;4982570;28;20510;-84
2022/03/30 04:56:02;;;;;;;10.10;4.90;;;10.20;57.20;;;;;;4999975;28;20026;-84
2022/03/30 04:58:28;;;;;;;8.10;4.22;;;10.20;57.50;;;;;;4966284;28;20090;-84
2022/03/30 05:00:53;;;;;;;8.65;4.38;;;10.10;58.10;;;;;;4957253;28;20063;-84
2022/03/30 05:03:20;;;;;;;7.97;4.03;;;10.10;57.50;;;;;;5004022;28;20491;-83
2022/03/30 05:05:45;;;;;;;9.13;4.07;;;10.00;57.50;;;;;;4999305;28;20061;-84
2022/03/30 05:08:11;;;;;;;8.77;4.60;;;10.00;57.50;;;;;;5001473;28;20030;-83
2022/03/30 05:10:37;;;;;;;9.18;4.90;;;10.00;57.60;;;;;;4987871;28;20629;-83
2022/03/30 05:13:04;;;;;;;10.10;4.33;;;9.90;57.70;;;;;;4988211;28;20038;-83
2022/03/30 05:15:30;;;;;;;8.05;4.57;;;9.90;57.80;;;;;;4966120;28;20033;-83
2022/03/30 05:17:57;;;;;;;13.20;4.93;;;9.90;57.70;;;;;;5011011;28;20671;-83
2022/03/30 05:20:22;;;;;;;10.20;4.60;;;9.80;58.10;;;;;;5009803;28;20030;-83
2022/03/30 05:22:48;;;;;;;8.60;4.27;;;9.90;58.30;;;;;;4979024;28;20678;-83
2022/03/30 05:25:15;;;;;;;7.68;4.13;;;9.80;58.00;;;;;;4989020;28;20030;-83
2022/03/30 05:27:42;;;;;;;9.82;4.85;;;9.80;58.20;;;;;;4998100;28;20329;-83
2022/03/30 05:30:09;;;;;;;9.32;4.57;;;9.80;58.50;;;;;;4992551;28;20021;-83
2022/03/30 05:32:35;;;;;;;8.88;4.78;;;9.80;58.30;;;;;;5005478;28;20058;-83
2022/03/30 05:35:03;;;;;;;8.20;4.30;;;9.70;58.30;;;;;;5014626;28;20120;-84
2022/03/30 05:37:30;;;;;;;9.15;4.32;;;9.70;58.50;;;;;;4979074;28;20042;-83
2022/03/30 05:39:57;;;;;;;9.38;4.40;;;9.70;58.30;;;;;;4996574;28;20029;-84
2022/03/30 05:42:22;;;;;;;8.65;4.40;;;9.70;58.60;;;;;;5004796;28;20366;-83
2022/03/30 05:44:49;;;;;;;9.10;4.33;;;9.60;58.50;;;;;;4999631;28;20155;-84
2022/03/30 05:47:15;;;;;;;9.53;4.87;;;9.70;58.60;;;;;;4976581;28;20320;-84
2022/03/30 05:49:41;;;;;;;8.80;4.18;;;9.60;58.60;;;;;;5014091;28;20062;-83
2022/03/30 05:52:07;;;;;;;9.00;3.97;;;9.60;58.60;;;;;;4997499;28;20064;-83
2022/03/30 05:54:33;;;;;;;7.67;4.20;;;9.60;58.70;;;;;;5005762;28;20034;-82
2022/03/30 05:57:02;;;;;;;9.02;4.60;;;9.60;58.60;;;;;;4989870;28;20022;-84
2022/03/30 05:59:30;;;;;;;8.15;4.38;;;9.60;58.70;;;;;;4994027;28;20029;-83
2022/03/30 06:01:57;;;;;;;10.27;4.70;;;9.60;59.10;;;;;;4982818;28;20694;-83
2022/03/30 06:04:23;;;;;;;8.98;4.32;;;9.60;59.00;;;;;;4983316;28;20022;-83
2022/03/30 06:06:50;;;;;;;8.87;4.27;;;9.60;58.80;;;;;;4988813;28;20032;-83
2022/03/30 06:09:17;;;;;;;8.60;4.18;;;9.60;59.00;;;;;;4984580;28;20100;-84
2022/03/30 06:11:43;;;;;;;7.80;4.30;;;9.70;59.00;;;;;;4995992;28;20037;-83
2022/03/30 06:14:09;;;;;;;7.80;3.75;;;9.70;59.00;;;;;;4975429;28;20412;-84
2022/03/30 06:16:35;;;;;;;9.47;4.80;;;9.70;59.10;;;;;;4977369;28;20026;-82
2022/03/30 06:19:01;;;;;;;8.15;4.53;;;9.80;59.20;;;;;;5000532;28;20436;-83
2022/03/30 06:21:29;;;;;;;8.98;4.15;;;9.80;59.20;;;;;;4966837;28;20030;-83
2022/03/30 06:23:55;;;;;;;9.20;4.57;;;9.80;59.30;;;;;;4976656;28;20250;-83
2022/03/30 06:26:20;;;;;;;7.95;4.10;;;9.80;59.00;;;;;;5005266;28;20483;-83
2022/03/30 06:28:47;;;;;;;9.50;4.90;;;9.90;59.30;;;;;;4998886;28;20053;-83
2022/03/30 06:31:17;;;;;;;10.30;4.47;;;9.90;59.30;;;;;;4969055;28;20085;-83
2022/03/30 06:33:43;;;;;;;9.95;4.72;;;10.00;59.40;;;;;;4984375;28;20528;-83
2022/03/30 06:36:11;;;;;;;10.23;4.30;;;10.00;60.00;;;;;;4988250;28;20050;-83
2022/03/30 06:38:37;;;;;;;8.63;4.78;;;10.10;59.50;;;;;;4988943;28;20033;-83
2022/03/30 06:41:04;;;;;;;10.38;4.90;;;10.10;59.60;;;;;;4987121;28;20371;-83
2022/03/30 06:43:30;;;;;;;8.13;4.35;;;10.20;59.60;;;;;;4998946;28;20033;-83
2022/03/30 06:45:55;;;;;;;9.83;4.37;;;10.20;59.60;;;;;;4981086;28;20057;-83
2022/03/30 06:48:21;;;;;;;9.05;4.80;;;10.30;59.50;;;;;;4979248;28;20022;-83
2022/03/30 06:50:47;;;;;;;8.23;4.13;;;10.40;59.60;;;;;;5012792;28;20631;-83
2022/03/30 06:53:13;;;;;;;8.02;4.10;;;10.50;59.60;;;;;;5014723;28;20518;-83
2022/03/30 06:55:40;;;;;;;9.85;4.90;;;10.60;59.80;;;;;;4958353;28;20034;-83
2022/03/30 06:58:06;;;;;;;9.87;4.50;;;10.70;59.60;;;;;;5008549;28;20235;-83
2022/03/30 07:00:32;;;;;;;11.75;4.28;;;10.70;59.30;;;;;;4992853;28;20076;-83
2022/03/30 07:02:58;;;;;;;9.85;4.30;;;10.80;59.30;;;;;;4988438;28;20080;-84
2022/03/30 07:05:24;;;;;;;8.73;4.07;;;10.90;59.10;;;;;;4997573;28;20396;-83
2022/03/30 07:10:35;;;;;;;9.00;4.05;;;11.00;59.00;;;;;;5003671;28;20037;-84
2022/03/30 07:13:03;;;;;;;11.35;4.55;;;11.10;58.80;;;;;;4969784;28;20125;-83
2022/03/30 07:15:29;;;;;;;7.82;4.03;;;11.10;58.80;;;;;;4997956;28;20062;-84
2022/03/30 07:17:56;;;;;;;9.07;4.43;;;11.10;58.70;;;;;;5012692;28;20029;-84
2022/03/30 07:20:23;;;;;;;9.27;4.50;;;11.20;58.80;;;;;;4983309;28;20049;-83
2022/03/30 07:22:50;;;;;;;7.85;4.10;;;11.20;58.80;;;;;;5002205;28;20494;-82
2022/03/30 07:25:17;;;;;;;9.13;3.97;;;11.20;58.70;;;;;;5000922;28;20522;-83
2022/03/30 07:27:46;;;;;;;12.25;5.25;;;11.30;58.60;;;;;;5004847;28;20049;-84
2022/03/30 07:30:13;;;;;;;7.80;4.30;;;11.30;58.50;;;;;;4974764;28;20057;-83
2022/03/30 07:32:41;;;;;;;9.13;4.28;;;11.30;58.50;;;;;;4996830;28;20034;-84
2022/03/30 07:35:08;;;;;;;11.18;5.03;;;11.30;58.60;;;;;;4979134;28;20099;-83
2022/03/30 07:37:36;;;;;;;11.02;4.90;;;11.30;58.50;;;;;;5003373;28;20040;-84
2022/03/30 07:40:03;;;;;;;8.95;4.20;;;11.40;58.70;;;;;;5014857;28;20034;-83
2022/03/30 07:42:29;;;;;;;8.67;4.43;;;11.40;58.80;;;;;;4990070;28;20056;-84
2022/03/30 07:44:54;;;;;;;9.52;4.35;;;11.50;58.70;;;;;;4991242;28;20045;-83
2022/03/30 07:47:21;;;;;;;11.40;5.13;;;11.50;59.00;;;;;;4987938;28;20034;-83
2022/03/30 07:49:47;;;;;;;9.15;4.28;;;11.60;59.30;;;;;;4983949;28;20038;-84
2022/03/30 07:52:13;;;;;;;9.80;4.40;;;11.80;59.80;;;;;;4959873;28;20030;-84
2022/03/30 07:54:39;;;;;;;8.63;3.90;;;12.00;60.40;;;;;;4981461;28;20136;-83
2022/03/30 07:57:04;;;;;;;9.35;4.63;;;12.30;60.80;;;;;;4997141;28;20524;-84
2022/03/30 07:59:30;;;;;;;8.47;4.40;;;12.60;60.60;;;;;;4985725;28;20034;-84
2022/03/30 08:01:58;;;;;;;8.93;4.60;;;12.90;60.50;;;;;;4987684;28;20040;-84
2022/03/30 08:04:24;;;;;;;10.20;4.63;;;13.20;60.20;;;;;;4972004;28;20332;-83
2022/03/30 08:06:50;;;;;;;13.55;5.90;;;13.50;59.30;;;;;;4988563;28;20606;-84
2022/03/30 08:09:16;;;;;;;13.05;5.28;;;13.70;58.10;;;;;;5004676;28;20061;-83
2022/03/30 08:11:42;;;;;;;10.15;5.20;;;13.80;57.70;;;;;;5015540;28;20018;-84
2022/03/30 08:14:08;;;;;;;10.87;4.90;;;13.80;57.00;;;;;;4978880;28;20572;-83
2022/03/30 08:16:33;;;;;;;9.43;4.60;;;13.80;56.80;;;;;;4998171;28;20445;-84
2022/03/30 08:18:59;;;;;;;8.20;4.63;;;13.80;56.50;;;;;;4991983;28;20601;-83
2022/03/30 08:24:09;;;;;;;7.75;3.95;;;13.80;56.50;;;;;;4979037;28;20099;-83
2022/03/30 08:26:37;;;;;;;8.30;4.60;;;13.90;57.00;;;;;;5012509;28;20050;-84
2022/03/30 08:29:05;;;;;;;11.55;5.38;;;13.90;57.40;;;;;;4997143;28;20412;-83
2022/03/30 08:31:31;;;;;;;10.10;4.93;;;14.10;57.40;;;;;;4987764;28;20026;-83
2022/03/30 08:33:58;;;;;;;8.60;4.50;;;14.10;57.00;;;;;;4981711;28;20514;-84
2022/03/30 08:36:23;;;;;;;10.47;4.90;;;14.30;56.70;;;;;;5001283;28;20521;-83
2022/03/30 08:38:49;;;;;;;12.27;5.55;;;14.40;56.20;;;;;;4992462;28;20109;-83
2022/03/30 08:41:15;;;;;;;9.97;5.17;;;14.40;55.70;;;;;;5007013;28;20145;-83
2022/03/30 08:43:41;;;;;;;11.63;5.03;;;14.40;55.50;;;;;;5000354;28;20034;-83
2022/03/30 08:46:07;;;;;;;11.30;5.28;;;14.30;55.20;;;;;;4960153;28;20329;-83
2022/03/30 08:48:32;;;;;;;11.63;5.27;;;14.30;55.20;;;;;;5012779;28;20393;-83
2022/03/30 08:50:59;;;;;;;9.90;4.93;;;14.20;55.10;;;;;;4980296;28;20036;-83
2022/03/30 08:53:26;;;;;;;10.95;5.22;;;14.20;55.30;;;;;;5002026;28;20287;-83
2022/03/30 08:55:52;;;;;;;9.45;4.72;;;14.20;56.20;;;;;;4963781;28;20490;-84
2022/03/30 08:58:18;;;;;;;9.77;5.30;;;14.30;55.70;;;;;;4994464;28;20026;-84
2022/03/30 09:00:44;;;;;;;10.18;4.85;;;14.40;55.90;;;;;;4982275;28;20053;-83
2022/03/30 09:03:15;;;;;;;11.93;5.13;;;14.50;56.20;;;;;;4997022;28;20128;-83
2022/03/30 09:05:40;;;;;;;9.40;4.43;;;14.60;56.10;;;;;;4979363;28;20281;-84
2022/03/30 09:08:12;;;;;;;10.10;4.43;;;14.80;56.30;;;;;;4974764;28;20720;-83
2022/03/30 09:10:40;;;;;;;11.20;5.07;;;15.00;56.30;;;;;;4982857;28;20034;-84
2022/03/30 09:13:07;;;;;;;10.30;4.97;;;15.20;56.20;;;;;;4997216;28;20033;-84
2022/03/30 09:15:34;;;;;;;10.30;4.93;;;15.40;56.10;;;;;;4997360;28;20045;-83
2022/03/30 09:18:03;;;;;;;9.48;4.47;;;15.60;56.10;;;;;;4992049;28;20030;-83
2022/03/30 09:20:30;;;;;;;9.85;4.88;;;15.90;56.50;;;;;;4998991;28;20095;-84
2022/03/30 09:22:58;;;;;;;10.75;5.47;;;16.20;56.30;;;;;;4984346;28;20073;-84
2022/03/30 09:25:28;;;;;;;10.93;5.33;;;16.40;55.90;;;;;;4976385;28;20115;-84
2022/03/30 09:27:55;;;;;;;8.80;4.90;;;16.60;55.50;;;;;;5012510;28;20054;-83
2022/03/30 09:30:23;;;;;;;12.00;5.28;;;16.90;55.30;;;;;;5002968;28;20132;-84
2022/03/30 09:32:50;;;;;;;10.82;4.93;;;17.10;55.10;;;;;;4974758;28;20215;-83
2022/03/30 09:35:31;;;;;;;8.38;4.78;;;17.30;54.60;;;;;;4992361;28;20509;-84
2022/03/30 09:38:11;;;;;;;9.00;4.60;;;17.50;53.10;;;;;;4987557;28;20278;-84
2022/03/30 09:40:39;;;;;;;8.63;4.70;;;17.70;52.50;;;;;;5002970;28;20514;-83
2022/03/30 09:43:28;;;;;;;7.68;4.15;;;17.90;53.40;;;;;;4998907;28;20458;-84
2022/03/30 09:46:13;;;;;;;9.18;5.00;;;18.00;52.90;;;;;;4971769;28;20058;-84
2022/03/30 09:48:49;;;;;;;7.05;4.18;;;18.20;52.20;;;;;;4983392;28;20032;-84
2022/03/30 09:51:16;;;;;;;9.77;4.67;;;18.50;53.60;;;;;;4983006;28;20036;-84
2022/03/30 09:53:42;;;;;;;10.13;5.05;;;18.80;53.60;;;;;;4994673;28;20030;-84
2022/03/30 09:56:16;;;;;;;9.88;5.20;;;19.00;52.50;;;;;;4983289;28;20030;-84
2022/03/30 09:58:43;;;;;;;9.85;4.78;;;19.30;51.00;;;;;;4977861;28;20069;-84
2022/03/30 10:01:11;;;;;;;9.13;4.95;;;19.30;51.40;;;;;;5010590;28;20406;-84
2022/03/30 10:03:45;;;;;;;9.13;4.30;;;19.50;51.10;;;;;;4984644;28;20037;-84
2022/03/30 10:06:15;;;;;;;10.32;5.13;;;19.70;51.20;;;;;;5006575;28;20049;-84
2022/03/30 10:08:43;;;;;;;8.35;4.60;;;19.80;50.40;;;;;;4980516;28;20038;-84
2022/03/30 10:11:10;;;;;;;5.97;3.78;;;20.00;50.10;;;;;;4998442;28;20057;-84
2022/03/30 10:13:37;;;;;;;8.18;3.85;;;20.10;50.00;;;;;;4994598;28;20025;-84
2022/03/30 10:16:05;;;;;;;8.80;4.47;;;20.20;49.40;;;;;;4996366;28;20171;-84
2022/03/30 10:18:32;;;;;;;7.13;4.03;;;20.20;48.40;;;;;;4982734;28;20117;-84
2022/03/30 10:21:40;;;;;;;10.40;4.80;;;20.20;48.20;;;;;;4994627;28;20060;-84
2022/03/30 10:24:37;;;;;;;8.65;3.90;;;20.20;45.50;;;;;;4964832;28;20586;-83
2022/03/30 10:27:36;;;;;;;7.50;4.32;;;20.20;47.20;;;;;;4997351;28;20430;-84
2022/03/30 10:30:05;;;;;;;8.27;4.30;;;20.20;46.10;;;;;;4987921;28;20687;-84
2022/03/30 10:32:34;;;;;;;9.20;4.78;;;20.10;47.00;;;;;;4961692;28;20029;-83
2022/03/30 10:35:13;;;;;;;8.52;5.15;;;20.20;47.30;;;;;;4981826;28;20505;-84
2022/03/30 10:37:43;;;;;;;8.05;4.65;;;20.20;46.00;;;;;;4984816;28;20022;-83
2022/03/30 10:40:23;;;;;;;8.25;4.88;;;20.30;46.90;;;;;;4990867;28;20247;-83
2022/03/30 10:42:54;;;;;;;9.20;5.03;;;20.50;46.20;;;;;;4992283;28;20026;-84
2022/03/30 10:45:29;;;;;;;9.70;4.45;;;20.60;46.60;;;;;;4972731;28;20038;-83
2022/03/30 10:48:08;;;;;;;8.13;4.43;;;20.90;45.90;;;;;;4998786;28;20454;-84
2022/03/30 10:50:41;;;;;;;9.27;4.35;;;21.00;45.60;;;;;;4991859;28;20445;-84
2022/03/30 10:53:31;;;;;;;7.30;4.65;;;21.20;46.70;;;;;;4999305;28;20522;-84
2022/03/30 10:56:15;;;;;;;8.53;4.53;;;21.40;44.70;;;;;;5000665;28;20223;-84
2022/03/30 10:58:52;;;;;;;8.50;4.72;;;21.60;44.40;;;;;;5000748;28;20105;-84
2022/03/30 11:01:30;;;;;;;8.65;4.93;;;21.70;44.70;;;;;;4999802;28;20030;-84
2022/03/30 11:04:18;;;;;;;6.93;4.50;;;21.90;45.10;;;;;;4980358;28;20280;-84
2022/03/30 11:07:05;;;;;;;9.40;4.80;;;22.00;43.80;;;;;;5004752;28;20250;-84
2022/03/30 11:09:33;;;;;;;7.73;4.43;;;22.10;44.70;;;;;;4958556;28;20042;-84
2022/03/30 11:12:12;;;;;;;9.82;4.90;;;22.20;44.70;;;;;;5007777;28;20059;-83
2022/03/30 11:14:41;;;;;;;7.63;4.53;;;22.30;43.70;;;;;;4982652;28;20030;-84
2022/03/30 11:17:13;;;;;;;8.10;4.57;;;22.50;44.70;;;;;;5009223;28;20215;-84
2022/03/30 11:19:48;;;;;;;7.88;4.95;;;22.60;44.30;;;;;;4961425;28;20514;-84
2022/03/30 11:22:28;;;;;;;7.93;4.80;;;22.80;43.30;;;;;;4978549;28;20322;-84
2022/03/30 11:25:20;;;;;;;9.60;5.13;;;23.00;43.70;;;;;;4950531;28;20121;-84
2022/03/30 11:27:58;;;;;;;9.75;5.07;;;23.20;41.40;;;;;;4990326;28;20058;-85
2022/03/30 11:30:29;;;;;;;7.03;4.28;;;23.40;42.10;;;;;;4994532;28;20239;-84
2022/03/30 11:33:22;;;;;;;8.85;4.80;;;23.50;42.90;;;;;;4983788;28;20053;-83
2022/03/30 11:35:49;;;;;;;7.30;4.80;;;23.60;41.60;;;;;;4975453;28;20049;-84
2022/03/30 11:38:28;;;;;;;8.43;4.70;;;23.80;42.40;;;;;;4993076;28;20093;-84
2022/03/30 11:41:13;;;;;;;6.38;3.88;;;23.90;41.10;;;;;;5001987;28;20026;-84
2022/03/30 11:46:30;;;;;;;7.50;4.32;;;24.00;40.50;;;;;;4978026;28;20529;-85
2022/03/30 11:49:00;;;;;;;7.50;4.13;;;24.00;40.00;;;;;;4989240;28;20255;-85
2022/03/30 11:51:27;;;;;;;9.70;4.45;;;24.00;40.30;;;;;;4959950;28;20598;-85
2022/03/30 11:54:16;;;;;;;7.18;4.72;;;24.00;40.40;;;;;;5007757;28;20262;-84
2022/03/30 11:56:43;;;;;;;8.57;4.93;;;24.10;38.80;;;;;;4990943;28;20034;-85
2022/03/30 11:59:09;;;;;;;8.23;5.05;;;24.10;39.90;;;;;;4968677;28;20155;-84
2022/03/30 12:01:36;;;;;;;6.67;3.90;;;24.20;39.80;;;;;;4994890;28;20037;-84
2022/03/30 12:04:03;;;;;;;7.00;4.63;;;24.30;40.00;;;;;;4991195;28;20022;-84
2022/03/30 12:06:29;;;;;;;7.65;4.43;;;24.30;38.90;;;;;;4995014;28;20022;-85
2022/03/30 12:08:57;;;;;;;9.80;4.22;;;24.40;39.00;;;;;;5004472;28;20517;-85
2022/03/30 12:11:23;;;;;;;8.17;4.30;;;24.40;38.70;;;;;;4992411;28;20042;-84
2022/03/30 12:13:57;;;;;;;8.32;4.07;;;24.50;38.00;;;;;;5002331;28;20046;-84
2022/03/30 12:16:24;;;;;;;7.10;4.45;;;24.40;36.50;;;;;;4978620;28;24319;-84
2022/03/30 12:18:56;;;;;;;6.75;3.90;;;24.30;37.60;;;;;;4995786;28;20026;-83
2022/03/30 12:21:25;;;;;;;6.45;4.00;;;24.30;36.80;;;;;;5011992;28;20668;-84
2022/03/30 12:23:54;;;;;;;7.70;4.50;;;24.20;37.20;;;;;;4986809;28;20044;-85
2022/03/30 12:26:20;;;;;;;7.07;4.22;;;24.20;37.50;;;;;;4986761;28;20778;-85
2022/03/30 12:28:46;;;;;;;6.72;4.35;;;24.20;37.80;;;;;;4984997;28;20584;-84
2022/03/30 12:31:14;;;;;;;7.97;4.20;;;24.20;37.50;;;;;;4976260;28;20135;-85
2022/03/30 12:33:50;;;;;;;5.97;4.53;;;24.20;37.50;;;;;;4983091;28;20393;-84
2022/03/30 12:36:21;;;;;;;7.30;4.32;;;24.30;36.30;;;;;;5005148;28;20022;-84
2022/03/30 12:38:51;;;;;;;6.60;3.92;;;24.20;36.30;;;;;;4982431;28;20157;-83
2022/03/30 12:41:27;;;;;;;7.20;4.40;;;24.10;36.50;;;;;;4987900;28;20620;-85
2022/03/30 12:44:01;;;;;;;7.10;3.85;;;24.00;35.80;;;;;;5005289;28;20037;-84
2022/03/30 12:46:33;;;;;;;6.37;4.20;;;23.90;35.50;;;;;;4993865;28;20030;-84
2022/03/30 12:49:06;;;;;;;6.85;3.80;;;23.80;35.30;;;;;;4979460;28;20139;-85
2022/03/30 12:51:33;;;;;;;6.78;4.10;;;23.60;35.40;;;;;;4969907;28;20104;-84
2022/03/30 12:54:01;;;;;;;7.35;3.90;;;23.50;35.70;;;;;;4976340;28;20087;-83
2022/03/30 12:56:29;;;;;;;8.40;4.25;;;23.30;35.60;;;;;;5004414;28;20162;-84
2022/03/30 12:58:57;;;;;;;5.90;3.63;;;23.20;35.50;;;;;;4986482;28;20034;-84
2022/03/30 13:01:37;;;;;;;5.43;3.60;;;23.00;35.60;;;;;;5002692;28;20249;-84